Time;durP1;ratioP1;P1;durP2;ratioP2;P2;SDS_P1;SDS_P2;PMS_P1;PMS_P2;Temp;Humidity;BMP_temperature;BMP_pressure;BME280_temperature;BME280_humidity;BME280_pressure;Samples;Min_cycle;Max_cycle;Signal;HPM_P1;HPM_P2
2021/11/22 00:00:41;;;;;;;15.15;9.52;;;;;;;8.08;100.00;98837.44;5033229;28;20055;-66
2021/11/22 00:03:25;;;;;;;13.27;8.73;;;;;;;8.09;100.00;98843.41;5032367;28;20095;-66
2021/11/22 00:06:09;;;;;;;13.00;7.82;;;;;;;8.05;100.00;98844.59;5033336;28;20191;-66
2021/11/22 00:08:53;;;;;;;13.65;8.02;;;;;;;8.05;100.00;98842.81;5033282;28;20180;-66
2021/11/22 00:11:37;;;;;;;11.60;8.40;;;;;;;8.07;100.00;98853.03;5031932;28;20436;-67
2021/11/22 00:14:21;;;;;;;12.20;8.10;;;;;;;8.07;100.00;98853.03;5032173;28;20551;-66
2021/11/22 00:17:05;;;;;;;;;;;;;;;8.13;100.00;98857.69;5033510;28;20056;-66
2021/11/22 00:19:49;;;;;;;12.05;7.47;;;;;;;8.08;100.00;98852.06;5032129;28;19963;-66
2021/11/22 00:22:33;;;;;;;;;;;;;;;8.14;100.00;98846.44;5032547;28;20048;-66
2021/11/22 00:25:18;;;;;;;13.43;7.97;;;;;;;8.18;100.00;98852.97;5032397;28;19920;-66
2021/11/22 00:28:03;;;;;;;11.82;7.55;;;;;;;8.15;100.00;98855.81;5031786;28;20131;-66
2021/11/22 00:30:47;;;;;;;10.00;7.25;;;;;;;8.12;100.00;98856.03;5035195;28;20144;-66
2021/11/22 00:33:31;;;;;;;13.18;8.05;;;;;;;8.16;100.00;98865.97;5036889;28;20410;-66
2021/11/22 00:36:15;;;;;;;14.65;8.68;;;;;;;8.18;100.00;98866.72;5035816;28;20053;-67
2021/11/22 00:38:59;;;;;;;12.52;8.35;;;;;;;8.16;100.00;98868.56;5036470;28;20470;-66
2021/11/22 00:41:43;;;;;;;12.07;8.35;;;;;;;8.15;100.00;98873.84;5035653;28;20048;-66
2021/11/22 00:44:27;;;;;;;11.73;8.20;;;;;;;8.10;100.00;98870.81;5035344;28;20052;-66
2021/11/22 00:47:12;;;;;;;12.02;7.80;;;;;;;8.14;100.00;98870.44;5036855;28;20045;-66
2021/11/22 00:49:56;;;;;;;12.10;8.05;;;;;;;8.17;100.00;98869.38;5036179;28;20099;-67
2021/11/22 00:52:40;;;;;;;12.50;8.13;;;;;;;8.15;100.00;98879.81;5035550;28;20111;-66
2021/11/22 00:55:24;;;;;;;11.82;7.40;;;;;;;8.17;100.00;98877.13;5035447;28;20052;-66
2021/11/22 00:58:08;;;;;;;13.38;8.95;;;;;;;8.14;100.00;98877.38;5036088;28;20099;-66
2021/11/22 01:00:52;;;;;;;12.40;8.50;;;;;;;8.20;100.00;98874.31;5036396;28;20051;-66
2021/11/22 01:03:36;;;;;;;13.82;7.55;;;;;;;8.20;100.00;98879.47;5035132;28;20159;-66
2021/11/22 01:06:20;;;;;;;10.82;7.95;;;;;;;8.23;100.00;98892.94;5036126;28;20053;-66
2021/11/22 01:09:05;;;;;;;12.57;7.95;;;;;;;8.16;100.00;98894.34;5035564;28;20052;-66
2021/11/22 01:11:49;;;;;;;10.75;7.00;;;;;;;8.17;100.00;98895.16;5034959;28;20064;-66
2021/11/22 01:14:34;;;;;;;11.80;7.32;;;;;;;8.17;100.00;98895.16;5035157;28;20103;-65
2021/11/22 01:17:20;;;;;;;11.27;7.30;;;;;;;8.19;100.00;98898.47;5035967;28;20048;-66
2021/11/22 01:20:05;;;;;;;11.45;7.82;;;;;;;8.17;100.00;98897.75;5035765;28;20053;-67
2021/11/22 01:22:49;;;;;;;12.20;8.15;;;;;;;8.18;100.00;98901.97;5035025;28;20080;-66
2021/11/22 01:25:33;;;;;;;12.05;8.10;;;;;;;8.16;100.00;98904.66;5035963;28;20091;-66
2021/11/22 01:28:17;;;;;;;10.73;7.10;;;;;;;8.15;100.00;98904.78;5034779;28;20044;-66
2021/11/22 01:31:01;;;;;;;12.35;8.20;;;;;;;8.13;100.00;98904.09;5035711;28;20051;-66
2021/11/22 01:33:45;;;;;;;14.95;8.15;;;;;;;8.14;100.00;98919.44;5034734;28;20048;-66
2021/11/22 01:36:29;;;;;;;13.30;8.30;;;;;;;8.20;100.00;98915.56;5035607;28;20548;-66
2021/11/22 01:39:13;;;;;;;10.57;7.57;;;;;;;8.22;100.00;98924.00;5035630;28;20094;-65
2021/11/22 01:41:57;;;;;;;;;;;;;;;8.22;100.00;98914.50;5034935;28;20044;-66
2021/11/22 01:44:41;;;;;;;13.63;7.80;;;;;;;8.21;100.00;98912.03;5034434;28;19919;-66
2021/11/22 01:47:25;;;;;;;13.27;8.27;;;;;;;8.19;100.00;98913.94;5035492;28;20406;-67
2021/11/22 01:50:12;;;;;;;11.18;8.05;;;;;;;8.23;100.00;98915.34;5034229;28;20048;-67
2021/11/22 01:52:56;;;;;;;14.32;8.57;;;;;;;8.21;100.00;98919.78;5020171;28;20426;-67
2021/11/22 01:55:41;;;;;;;12.23;8.13;;;;;;;8.23;100.00;98918.72;5034280;28;20048;-67
2021/11/22 01:58:25;;;;;;;13.57;8.50;;;;;;;8.24;100.00;98917.78;5020067;28;20102;-66
2021/11/22 02:01:09;;;;;;;11.77;8.20;;;;;;;8.25;100.00;98918.63;5019997;28;20099;-67
2021/11/22 02:03:53;;;;;;;11.95;7.78;;;;;;;8.25;100.00;98918.63;5034916;28;20048;-66
2021/11/22 02:06:37;;;;;;;13.40;8.50;;;;;;;8.29;100.00;98925.16;5034111;28;20056;-67
2021/11/22 02:09:21;;;;;;;12.30;8.73;;;;;;;8.24;100.00;98928.09;5020059;28;20053;-67
2021/11/22 02:12:05;;;;;;;12.68;8.52;;;;;;;8.25;100.00;98923.78;5019661;28;20521;-67
2021/11/22 02:14:49;;;;;;;14.02;9.85;;;;;;;8.25;100.00;98928.94;5035174;28;20049;-67
2021/11/22 02:17:36;;;;;;;13.88;9.32;;;;;;;8.26;100.00;98925.41;5034903;28;20107;-66
2021/11/22 02:20:23;;;;;;;15.40;9.85;;;;;;;8.27;100.00;98932.19;5034537;28;20052;-67
2021/11/22 02:23:09;;;;;;;13.40;8.88;;;;;;;8.15;100.00;98928.00;5033487;28;20512;-66
2021/11/22 02:25:53;;;;;;;13.95;8.63;;;;;;;8.08;100.00;98937.16;5033733;28;20048;-66
2021/11/22 02:28:37;;;;;;;12.07;8.88;;;;;;;8.17;100.00;98936.41;5033662;28;20048;-66
2021/11/22 02:31:21;;;;;;;14.43;8.77;;;;;;;8.17;100.00;98933.84;5019584;28;20513;-66
2021/11/22 02:34:07;;;;;;;13.15;8.55;;;;;;;8.17;100.00;98937.22;5033348;28;20051;-67
2021/11/22 02:36:51;;;;;;;13.63;8.43;;;;;;;8.18;100.00;98943.22;5033625;28;20044;-67
2021/11/22 02:39:36;;;;;;;13.43;7.93;;;;;;;8.17;100.00;98944.16;5033547;28;20102;-67
2021/11/22 02:42:25;;;;;;;14.15;8.20;;;;;;;8.18;100.00;98943.22;5019123;28;20099;-66
2021/11/22 02:45:13;;;;;;;13.93;8.00;;;;;;;8.23;100.00;98947.09;5033053;28;20103;-66
2021/11/22 02:47:57;;;;;;;15.73;9.20;;;;;;;8.24;100.00;98955.66;5033578;28;20043;-66
2021/11/22 02:50:41;;;;;;;15.13;9.48;;;;;;;8.21;100.00;98948.97;5056658;22;20076;-66
2021/11/22 02:53:26;;;;;;;16.92;9.20;;;;;;;8.30;100.00;98963.72;5013551;28;20093;-67
2021/11/22 02:56:10;;;;;;;14.63;9.45;;;;;;;8.22;100.00;98954.94;5013336;28;20048;-65
2021/11/22 02:58:54;;;;;;;15.50;9.35;;;;;;;8.21;100.00;98958.47;5014692;28;20510;-65
2021/11/22 03:01:38;;;;;;;14.77;9.15;;;;;;;8.21;100.00;98966.19;5014299;28;20068;-66
2021/11/22 03:04:33;;;;;;;14.15;9.25;;;;;;;8.22;100.00;98971.25;5013401;28;20076;-66
2021/11/22 03:07:17;;;;;;;13.75;8.80;;;;;;;8.19;100.00;98971.50;5012966;28;20087;-67
2021/11/22 03:10:03;;;;;;;12.85;8.55;;;;;;;8.19;100.00;98970.66;5014435;28;20152;-66
2021/11/22 03:12:48;;;;;;;16.00;9.48;;;;;;;8.14;100.00;98973.56;5013150;28;20469;-66
2021/11/22 03:15:33;;;;;;;13.48;8.95;;;;;;;8.18;100.00;98974.16;5013856;28;20056;-64
2021/11/22 03:18:16;;;;;;;14.48;9.40;;;;;;;8.17;100.00;98975.09;5012758;28;20076;-66
2021/11/22 03:21:01;;;;;;;14.90;9.65;;;;;;;8.19;100.00;98970.66;4999350;28;20108;-64
2021/11/22 03:23:45;;;;;;;14.32;8.60;;;;;;;8.14;100.00;98978.72;5012781;28;20044;-67
2021/11/22 03:26:29;;;;;;;13.25;8.70;;;;;;;8.19;100.00;98971.50;5012797;28;20534;-67
2021/11/22 03:29:13;;;;;;;17.52;10.52;;;;;;;8.19;100.00;98973.25;5013034;28;20052;-67
2021/11/22 03:31:58;;;;;;;14.50;9.88;;;;;;;8.22;100.00;98980.72;5013099;28;20407;-67
2021/11/22 03:34:42;;;;;;;18.60;11.05;;;;;;;8.20;100.00;98980.88;5012628;28;20141;-66
2021/11/22 03:37:27;;;;;;;18.85;10.20;;;;;;;8.20;100.00;98978.28;5013839;28;20048;-65
2021/11/22 03:40:11;;;;;;;17.25;10.75;;;;;;;8.09;100.00;98978.28;5012841;28;20136;-66
2021/11/22 03:43:26;;;;;;;18.27;10.77;;;;;;;8.14;100.00;98971.00;5012933;28;20125;-67
2021/11/22 03:46:00;;;;;;;18.17;11.07;;;;;;;8.19;100.00;98978.41;5013219;28;20049;-63
2021/11/22 03:48:44;;;;;;;20.45;11.43;;;;;;;8.19;100.00;98983.56;5012477;28;20176;-66
2021/11/22 03:51:28;;;;;;;20.02;11.43;;;;;;;8.18;100.00;98981.88;4998366;28;20049;-67
2021/11/22 03:54:12;;;;;;;20.67;12.32;;;;;;;8.19;100.00;98986.13;4998793;28;20533;-65
2021/11/22 03:56:56;;;;;;;19.85;11.10;;;;;;;8.22;100.00;98985.88;5012569;28;20502;-67
2021/11/22 03:59:40;;;;;;;18.10;10.35;;;;;;;8.22;100.00;98986.72;5012615;28;20060;-63
2021/11/22 04:02:24;;;;;;;19.60;11.65;;;;;;;8.20;100.00;98990.34;4998580;28;20108;-65
2021/11/22 04:05:08;;;;;;;19.10;11.50;;;;;;;8.17;100.00;98995.72;5015511;28;20052;-65
2021/11/22 04:07:52;;;;;;;18.45;10.73;;;;;;;8.21;100.00;98994.56;5016631;28;20095;-65
2021/11/22 04:10:37;;;;;;;23.17;11.75;;;;;;;8.18;100.00;99000.78;5017256;28;20594;-66
2021/11/22 04:13:21;;;;;;;20.42;12.20;;;;;;;8.20;100.00;99009.22;5016480;28;20163;-67
2021/11/22 04:16:06;;;;;;;22.38;12.20;;;;;;;8.23;100.00;99003.00;5017455;28;20052;-67
2021/11/22 04:18:50;;;;;;;23.40;11.38;;;;;;;8.21;100.00;99000.53;5016386;28;20052;-64
2021/11/22 04:21:34;;;;;;;25.80;12.35;;;;;;;8.16;100.00;99012.94;5016025;28;20481;-67
2021/11/22 04:24:18;;;;;;;20.83;11.55;;;;;;;8.20;100.00;99016.97;5017349;28;20056;-67
2021/11/22 04:27:03;;;;;;;22.52;11.45;;;;;;;8.20;100.00;99022.13;5016226;28;20052;-66
2021/11/22 04:29:46;;;;;;;28.60;13.30;;;;;;;8.18;100.00;99024.00;5015895;28;20080;-67
2021/11/22 04:32:30;;;;;;;22.75;11.98;;;;;;;8.21;100.00;99030.66;5016857;28;20151;-67
2021/11/22 04:35:15;;;;;;;24.58;12.32;;;;;;;8.19;100.00;99027.38;5002254;28;20095;-67
2021/11/22 04:38:00;;;;;;;23.30;12.75;;;;;;;8.21;100.00;99031.50;5016799;28;20049;-67
2021/11/22 04:40:43;;;;;;;24.08;12.70;;;;;;;8.25;100.00;99034.66;5016690;28;20052;-65
2021/11/22 04:43:27;;;;;;;25.23;13.32;;;;;;;8.21;100.00;99036.66;5017031;28;20088;-64
2021/11/22 04:46:11;;;;;;;26.13;13.10;;;;;;;8.21;100.00;99030.66;5016668;28;20518;-66
2021/11/22 04:48:55;;;;;;;27.48;13.25;;;;;;;8.25;100.00;99042.38;5015843;28;20045;-66
2021/11/22 04:51:39;;;;;;;24.48;12.40;;;;;;;8.28;100.00;99049.88;5001670;28;20056;-63
2021/11/22 04:54:23;;;;;;;25.67;13.88;;;;;;;8.30;100.00;99050.56;5015525;28;20065;-66
2021/11/22 04:57:07;;;;;;;26.08;13.82;;;;;;;8.32;100.00;99049.50;5016377;28;20118;-66
2021/11/22 04:59:52;;;;;;;23.17;13.38;;;;;;;8.34;100.00;99049.41;5016626;28;20048;-66
2021/11/22 05:02:37;;;;;;;27.58;13.52;;;;;;;8.29;100.00;99054.09;5015259;28;20116;-66
2021/11/22 05:05:21;;;;;;;28.63;15.07;;;;;;;8.31;100.00;99052.19;5002045;28;20072;-66
2021/11/22 05:08:06;;;;;;;28.88;15.13;;;;;;;8.34;100.00;99052.00;5001633;28;20040;-66
2021/11/22 05:10:50;;;;;;;29.33;14.90;;;;;;;8.38;100.00;99058.53;5015564;28;20100;-67
2021/11/22 05:13:34;;;;;;;27.98;15.73;;;;;;;8.40;100.00;99059.22;5015671;28;20049;-65
2021/11/22 05:16:18;;;;;;;28.88;15.38;;;;;;;8.37;100.00;99062.84;5015723;28;20136;-66
2021/11/22 05:19:02;;;;;;;31.13;17.17;;;;;;;8.38;100.00;99063.69;5015987;28;20568;-66
2021/11/22 05:21:46;;;;;;;31.38;15.38;;;;;;;8.42;100.00;99062.50;5016108;28;20072;-63
2021/11/22 05:24:30;;;;;;;26.20;15.05;;;;;;;8.43;100.00;99070.13;5014912;28;20112;-61
2021/11/22 05:27:20;;;;;;;36.85;16.35;;;;;;;8.45;100.00;99070.00;5001253;28;20122;-65
2021/11/22 05:30:05;;;;;;;31.55;16.35;;;;;;;8.40;100.00;99072.13;5000933;28;20054;-65
2021/11/22 05:32:49;;;;;;;28.17;16.23;;;;;;;8.44;100.00;99078.69;5014728;28;20049;-65
2021/11/22 05:35:34;;;;;;;30.63;16.77;;;;;;;8.45;100.00;99080.34;5015113;28;20061;-67
2021/11/22 05:38:18;;;;;;;45.38;24.25;;;;;;;8.43;100.00;99082.19;5014903;28;20117;-66
2021/11/22 05:41:02;;;;;;;37.17;21.15;;;;;;;-139.48;100.00;61217.00;5015569;28;20061;-66
2021/11/22 05:43:46;;;;;;;33.63;17.73;;;;;;;8.43;100.00;99088.19;5014862;28;20095;-64
2021/11/22 05:46:30;;;;;;;33.03;17.27;;;;;;;8.46;100.00;99092.28;5015529;28;20128;-67
2021/11/22 05:49:14;;;;;;;29.58;17.02;;;;;;;8.45;100.00;99086.28;5000747;28;20129;-67
2021/11/22 05:51:58;;;;;;;;;;;;;;;8.52;100.00;99102.94;5015340;28;20057;-65
2021/11/22 05:54:50;;;;;;;31.20;16.77;;;;;;;8.55;100.00;99101.88;5016126;28;20390;-67
2021/11/22 05:57:34;;;;;;;31.17;18.15;;;;;;;8.57;100.00;99100.81;5014601;28;20041;-66
2021/11/22 06:00:18;;;;;;;31.73;18.23;;;;;;;8.53;100.00;99102.00;5014571;28;20080;-67
2021/11/22 06:03:03;;;;;;;30.00;17.10;;;;;;;8.61;100.00;99111.72;5000636;28;20112;-66
2021/11/22 06:05:47;;;;;;;33.08;17.70;;;;;;;8.62;100.00;99109.03;5014430;28;20119;-67
2021/11/22 06:08:31;;;;;;;34.05;18.48;;;;;;;8.61;100.00;99117.69;5014213;28;20052;-67
2021/11/22 06:11:15;;;;;;;36.42;18.20;;;;;;;8.62;100.00;99115.94;5015213;28;20060;-67
2021/11/22 06:13:59;;;;;;;34.08;17.00;;;;;;;8.59;100.00;99118.75;5014681;28;20065;-63
2021/11/22 06:16:43;;;;;;;33.10;17.38;;;;;;;8.54;100.00;99124.28;5015405;28;20117;-67
2021/11/22 06:19:27;;;;;;;30.85;17.67;;;;;;;8.61;100.00;99127.19;5015153;28;20064;-67
2021/11/22 06:22:11;;;;;;;30.90;17.42;;;;;;;8.61;100.00;99122.03;5000114;28;20051;-67
2021/11/22 06:24:54;;;;;;;37.78;18.05;;;;;;;8.62;100.00;99126.25;5000252;28;20080;-65
2021/11/22 06:27:39;;;;;;;28.50;17.00;;;;;;;8.65;100.00;99144.09;5014140;28;20100;-62
2021/11/22 06:30:23;;;;;;;32.80;17.20;;;;;;;8.62;100.00;99139.97;5014051;28;20049;-66
2021/11/22 06:33:07;;;;;;;28.75;16.15;;;;;;;8.60;100.00;99146.19;5014006;28;20104;-66
2021/11/22 06:35:51;;;;;;;30.25;16.13;;;;;;;8.61;100.00;99143.50;5013659;28;20048;-64
2021/11/22 06:38:35;;;;;;;30.92;15.50;;;;;;;8.65;100.00;99149.25;5013789;28;20172;-66
2021/11/22 06:41:19;;;;;;;32.90;15.75;;;;;;;8.58;100.00;99151.47;5013456;28;20052;-66
2021/11/22 06:44:04;;;;;;;33.03;15.68;;;;;;;8.57;100.00;99162.72;5000139;28;20057;-67
2021/11/22 06:46:49;;;;;;;30.05;16.45;;;;;;;8.59;100.00;99170.34;5013545;28;20048;-63
2021/11/22 06:49:32;;;;;;;29.63;16.70;;;;;;;8.51;100.00;99170.13;5013635;28;20146;-66
2021/11/22 06:52:18;;;;;;;27.27;14.50;;;;;;;8.50;100.00;99176.22;5014242;28;20052;-67
2021/11/22 06:55:03;;;;;;;32.30;16.33;;;;;;;8.50;100.00;99177.06;5014302;28;20418;-67
2021/11/22 06:57:47;;;;;;;30.80;16.02;;;;;;;8.49;100.00;99184.91;5013385;28;20192;-66
2021/11/22 07:00:31;;;;;;;24.92;13.82;;;;;;;8.41;100.00;99182.09;5013672;28;20056;-67
2021/11/22 07:03:15;;;;;;;23.02;13.20;;;;;;;8.47;100.00;99187.59;5014141;28;20133;-67
2021/11/22 07:06:00;;;;;;;;;;;;;;;8.50;100.00;99192.53;5013824;28;20056;-66
2021/11/22 07:08:43;;;;;;;29.77;13.63;;;;;;;8.39;100.00;99195.13;5013129;28;20020;-67
2021/11/22 07:11:27;;;;;;;24.33;13.65;;;;;;;8.40;100.00;99203.66;5013246;28;20123;-67
2021/11/22 07:14:11;;;;;;;22.70;12.55;;;;;;;8.26;100.00;99203.91;5013250;28;20057;-66
2021/11/22 07:16:55;;;;;;;21.35;13.07;;;;;;;8.29;100.00;99211.41;5013849;28;20088;-66
2021/11/22 07:19:40;;;;;;;26.90;13.05;;;;;;;8.28;100.00;99218.31;5014088;28;20129;-64
2021/11/22 07:22:25;;;;;;;25.65;13.30;;;;;;;8.33;100.00;99217.94;5013076;28;20107;-67
2021/11/22 07:25:10;;;;;;;24.50;11.93;;;;;;;8.26;100.00;99219.38;5013032;28;20049;-67
2021/11/22 07:27:55;;;;;;;21.73;12.65;;;;;;;8.32;100.00;99230.03;5012925;28;20044;-67
2021/11/22 07:30:39;;;;;;;24.48;12.50;;;;;;;8.31;100.00;99243.88;5012875;28;20044;-67
2021/11/22 07:33:23;;;;;;;21.08;12.13;;;;;;;8.29;100.00;99240.59;5014241;28;20453;-66
2021/11/22 07:36:07;;;;;;;22.58;12.25;;;;;;;8.39;100.00;99245.88;4998999;28;20530;-65
2021/11/22 07:38:51;;;;;;;23.23;11.68;;;;;;;8.36;100.00;99262.38;5012407;28;20076;-67
2021/11/22 07:41:35;;;;;;;25.42;12.05;;;;;;;8.32;100.00;99257.56;5013720;28;20060;-64
2021/11/22 07:44:19;;;;;;;19.92;11.32;;;;;;;8.34;100.00;99266.84;4999122;28;20506;-67
2021/11/22 07:47:04;;;;;;;19.83;10.70;;;;;;;8.20;100.00;99263.66;5012612;28;20132;-64
2021/11/22 07:49:48;;;;;;;23.88;11.80;;;;;;;8.25;100.00;99271.88;5013532;28;20049;-63
2021/11/22 07:52:32;;;;;;;16.63;9.57;;;;;;;8.13;100.00;99272.78;5012329;28;20049;-65
2021/11/22 07:55:17;;;;;;;23.00;9.65;;;;;;;8.19;100.00;99285.22;5012653;28;20096;-63
2021/11/22 07:58:01;;;;;;;19.23;9.73;;;;;;;8.13;100.00;99283.09;4998542;28;20133;-66
2021/11/22 08:00:45;;;;;;;17.65;9.85;;;;;;;8.23;100.00;99286.66;5013718;28;20057;-65
2021/11/22 08:03:33;;;;;;;17.05;9.18;;;;;;;8.22;100.00;99290.13;5012928;28;20137;-64
2021/11/22 08:06:19;;;;;;;24.00;9.73;;;;;;;8.22;100.00;99295.31;5013683;28;20072;-64
2021/11/22 08:09:03;;;;;;;16.35;9.68;;;;;;;8.19;100.00;99298.13;5012577;28;20514;-67
2021/11/22 08:12:13;;;;;;;19.75;9.38;;;;;;;8.17;100.00;99303.34;5013594;28;20130;-65
2021/11/22 08:15:02;;;;;;;22.30;10.45;;;;;;;8.35;100.00;99306.38;5013463;28;20053;-66
2021/11/22 08:17:46;;;;;;;19.13;9.77;;;;;;;8.33;100.00;99305.63;4998468;28;20044;-67
2021/11/22 08:20:30;;;;;;;16.55;8.90;;;;;;;8.31;100.00;99304.94;5013499;28;20084;-64
2021/11/22 08:23:14;;;;;;;19.15;9.23;;;;;;;8.32;100.00;99310.00;5012366;28;20068;-64
2021/11/22 08:25:59;;;;;;;12.55;8.23;;;;;;;8.25;100.00;99315.72;5013461;28;20187;-64
2021/11/22 08:28:43;;;;;;;22.23;9.25;;;;;;;8.33;100.00;99319.38;5012363;28;20125;-65
2021/11/22 08:31:27;;;;;;;17.15;8.52;;;;;;;8.26;100.00;99325.09;5013013;28;20486;-67
2021/11/22 08:34:11;;;;;;;17.35;8.57;;;;;;;8.30;100.00;99327.34;5013372;28;20147;-64
2021/11/22 08:36:55;;;;;;;21.58;8.98;;;;;;;8.30;100.00;99334.25;4998428;28;20414;-66
2021/11/22 08:39:39;;;;;;;21.20;8.80;;;;;;;8.41;100.00;99336.84;5012602;28;20088;-67
2021/11/22 08:42:24;;;;;;;27.83;10.63;;;;;;;8.46;100.00;99337.34;5011969;28;20092;-65
2021/11/22 08:45:08;;;;;;;15.35;9.05;;;;;;;8.26;100.00;99348.31;5012259;28;20048;-66
2021/11/22 08:47:53;;;;;;;19.13;9.70;;;;;;;8.26;100.00;99349.13;5011886;28;20507;-66
2021/11/22 08:50:37;;;;;;;19.52;9.88;;;;;;;8.34;100.00;99351.16;5000089;28;20061;-65
2021/11/22 08:53:21;;;;;;;19.90;9.50;;;;;;;8.36;100.00;99355.25;5044133;22;20068;-64
2021/11/22 08:56:05;;;;;;;18.23;8.73;;;;;;;8.31;100.00;99366.81;5021528;28;20102;-64
2021/11/22 08:58:49;;;;;;;19.50;9.55;;;;;;;8.35;100.00;99371.66;5021082;28;20067;-65
2021/11/22 09:01:33;;;;;;;21.98;8.82;;;;;;;8.40;100.00;99366.16;5021548;28;20132;-66
2021/11/22 09:04:17;;;;;;;19.13;9.15;;;;;;;8.42;100.00;99370.28;4988040;28;20565;-66
2021/11/22 09:07:01;;;;;;;19.38;10.30;;;;;;;8.42;100.00;99379.75;5001644;28;20499;-64
2021/11/22 09:09:45;;;;;;;19.13;9.02;;;;;;;8.56;100.00;99385.53;5016422;28;20056;-66
2021/11/22 09:12:29;;;;;;;18.60;8.38;;;;;;;8.61;100.00;99385.19;5001719;28;20068;-64
2021/11/22 09:15:13;;;;;;;14.13;7.65;;;;;;;8.59;100.00;99382.75;5001202;28;20534;-66
2021/11/22 09:17:57;;;;;;;14.48;8.82;;;;;;;8.69;100.00;99393.19;5001106;28;20048;-64
2021/11/22 09:20:41;;;;;;;20.63;8.40;;;;;;;8.61;100.00;99390.38;5001071;28;20045;-66
2021/11/22 09:23:26;;;;;;;16.90;8.07;;;;;;;8.61;100.00;113045.97;5001207;28;20053;-63
2021/11/22 09:26:10;;;;;;;16.02;8.32;;;;;;;8.74;100.00;99401.41;5001554;28;20129;-66
2021/11/22 09:28:54;;;;;;;20.30;8.65;;;;;;;8.77;100.00;99401.19;5015813;28;20049;-66
2021/11/22 09:31:37;;;;;;;14.77;8.05;;;;;;;8.74;100.00;99402.25;5001115;28;20129;-65
2021/11/22 09:34:21;;;;;;;18.92;8.30;;;;;;;8.81;100.00;99412.94;5001458;28;20057;-66
2021/11/22 09:37:05;;;;;;;17.95;8.50;;;;;;;8.83;100.00;99416.22;4986934;28;20057;-64
2021/11/22 09:39:49;;;;;;;14.60;7.45;;;;;;;9.03;100.00;99420.69;5000523;28;20061;-66
2021/11/22 09:42:34;;;;;;;17.42;9.02;;;;;;;9.04;100.00;99422.34;5000101;28;20129;-64
2021/11/22 09:45:19;;;;;;;14.18;8.68;;;;;;;9.11;100.00;99426.94;5015105;28;20475;-64
2021/11/22 09:48:04;;;;;;;13.45;7.35;;;;;;;9.08;100.00;99428.94;5000424;28;20478;-66
2021/11/22 09:50:48;;;;;;;13.95;7.03;;;;;;;9.03;100.00;99425.88;5000205;28;20548;-64
2021/11/22 09:53:32;;;;;;;13.00;6.70;;;;;;;9.09;100.00;99430.56;5014852;28;20137;-64
2021/11/22 09:56:16;;;;;;;15.57;7.65;;;;;;;8.94;100.00;99439.47;5000344;28;20049;-63
2021/11/22 09:59:01;;;;;;;17.73;7.75;;;;;;;9.17;100.00;99431.63;4999721;28;20053;-64
2021/11/22 10:01:51;;;;;;;14.60;8.10;;;;;;;9.29;100.00;99435.06;4999793;28;20505;-63
2021/11/22 10:04:35;;;;;;;12.00;6.60;;;;;;;9.10;100.00;99429.63;4999564;28;20052;-66
2021/11/22 10:07:21;;;;;;;14.50;6.80;;;;;;;9.11;100.00;99434.69;4999726;28;20111;-66
2021/11/22 10:10:12;;;;;;;12.98;6.72;;;;;;;9.13;100.00;99444.88;4986355;28;20066;-66
2021/11/22 10:13:01;;;;;;;15.52;7.32;;;;;;;9.11;100.00;99432.13;4999592;28;20132;-64
2021/11/22 10:15:44;;;;;;;16.10;7.65;;;;;;;9.05;100.00;99442.09;4985827;28;20423;-65
2021/11/22 10:18:31;;;;;;;14.07;7.22;;;;;;;8.96;100.00;99447.94;4999663;28;20096;-66
2021/11/22 10:21:48;;;;;;;16.48;6.93;;;;;;;8.95;100.00;99446.28;4999249;28;20213;-64
2021/11/22 10:24:32;;;;;;;19.60;9.20;;;;;;;8.89;100.00;99449.31;5014421;28;20049;-65
2021/11/22 10:27:35;;;;;;;13.43;7.75;;;;;;;8.95;100.00;99448.88;4999508;28;20045;-64
2021/11/22 10:30:23;;;;;;;13.52;7.05;;;;;;;8.98;100.00;99448.63;5014219;28;20133;-64
2021/11/22 10:33:09;;;;;;;15.00;8.05;;;;;;;9.13;100.00;99450.88;4999188;28;20474;-64
2021/11/22 10:35:56;;;;;;;14.63;7.78;;;;;;;9.15;100.00;99448.22;4999259;28;20053;-64
2021/11/22 10:38:42;;;;;;;19.40;7.45;;;;;;;9.09;99.61;99454.63;5013857;28;20065;-64
2021/11/22 10:41:33;;;;;;;17.52;9.88;;;;;;;9.23;99.96;99451.00;4985408;28;20049;-66
2021/11/22 10:44:17;;;;;;;16.25;8.43;;;;;;;9.16;98.99;99453.22;4999025;28;20128;-64
2021/11/22 10:47:10;;;;;;;13.57;8.30;;;;;;;9.46;97.64;99463.81;4999117;28;20095;-64
2021/11/22 10:49:59;;;;;;;14.83;6.93;;;;;;;9.36;96.12;99451.75;5013963;28;20095;-64
2021/11/22 10:52:46;;;;;;;17.63;7.75;;;;;;;9.34;95.66;99453.59;4999715;28;20119;-64
2021/11/22 10:55:51;;;;;;;11.80;6.35;;;;;;;9.53;95.22;99454.66;4999190;28;20586;-66
2021/11/22 10:58:39;;;;;;;15.50;6.47;;;;;;;9.99;91.86;99446.75;4998853;28;20049;-64
2021/11/22 11:01:35;;;;;;;12.20;6.28;;;;;;;10.98;85.69;99447.97;5013797;28;20080;-64
2021/11/22 11:04:21;;;;;;;14.20;6.75;;;;;;;11.56;79.30;99462.09;4998866;28;20048;-64
2021/11/22 11:07:06;;;;;;;10.65;5.70;;;;;;;-139.48;100.00;61217.00;4998981;28;20414;-67
2021/11/22 11:09:50;;;;;;;7.45;4.55;;;;;;;12.79;72.71;99451.94;4998846;28;20086;-63
2021/11/22 11:12:34;;;;;;;;;;;;;;;13.46;68.36;99453.44;5013424;28;20080;-64
2021/11/22 11:15:18;;;;;;;7.90;4.15;;;;;;;14.91;60.49;99448.84;4984762;28;19924;-64
2021/11/22 11:18:02;;;;;;;5.53;3.65;;;;;;;15.68;58.54;99455.72;4998690;28;20119;-64
2021/11/22 11:20:49;;;;;;;6.88;4.63;;;;;;;16.04;57.99;99457.19;4998652;28;20052;-65
2021/11/22 11:23:33;;;;;;;5.80;3.50;;;;;;;15.63;56.09;99461.59;5013216;28;20135;-64
2021/11/22 11:26:18;;;;;;;5.28;3.28;;;;;;;14.67;56.03;99453.88;4998869;28;20045;-64
2021/11/22 11:29:02;;;;;;;4.38;2.92;;;;;;;15.66;54.57;99473.34;4998479;28;20129;-64
2021/11/22 11:31:46;;;;;;;5.63;3.22;;;;;;;14.58;55.87;99470.38;5013004;28;20077;-64
2021/11/22 11:34:35;;;;;;;4.10;2.75;;;;;;;14.30;57.96;99475.81;4998222;28;20534;-64
2021/11/22 11:37:37;;;;;;;5.93;3.75;;;;;;;13.56;60.92;99475.03;4998301;28;20057;-64
2021/11/22 11:40:40;;;;;;;5.82;4.05;;;;;;;13.17;61.97;99483.91;4998334;28;20172;-64
2021/11/22 11:43:48;;;;;;;5.78;3.42;;;;;;;13.23;63.35;99477.31;4998285;28;20068;-64
2021/11/22 11:46:54;;;;;;;4.90;3.05;;;;;;;12.85;65.06;99483.38;4998261;28;20442;-65
2021/11/22 11:49:38;;;;;;;6.15;2.80;;;;;;;12.53;65.88;99484.63;5013091;28;20083;-63
2021/11/22 11:52:27;;;;;;;12.82;5.88;;;;;;;12.18;67.00;99484.28;4984238;28;20092;-64
2021/11/22 11:55:12;;;;;;;9.10;4.55;;;;;;;11.94;66.90;99499.38;4998097;28;20049;-63
2021/11/22 11:58:17;;;;;;;13.85;4.88;;;;;;;12.06;67.61;99495.72;4998072;28;20120;-64
2021/11/22 12:01:06;;;;;;;13.95;6.75;;;;;;;11.95;68.44;99495.81;4998085;28;20096;-64
2021/11/22 12:04:07;;;;;;;12.48;5.35;;;;;;;12.00;67.44;99498.84;4997846;28;20053;-63
2021/11/22 12:06:53;;;;;;;15.57;5.93;;;;;;;11.78;67.99;99491.25;5012974;28;20049;-63
2021/11/22 12:09:39;;;;;;;9.68;4.65;;;;;;;11.89;69.18;99501.53;5012928;28;20072;-67
2021/11/22 12:12:33;;;;;;;8.75;4.00;;;;;;;11.71;69.48;99502.28;4998357;28;20092;-64
2021/11/22 12:15:23;;;;;;;8.75;4.20;;;;;;;11.68;68.74;99498.16;4998801;28;20092;-67
2021/11/22 12:18:25;;;;;;;7.57;4.32;;;;;;;11.64;69.51;99502.00;5013316;28;20045;-66
2021/11/22 12:21:21;;;;;;;6.90;3.80;;;;;;;11.33;69.95;99492.53;5013497;28;20084;-66
2021/11/22 12:24:13;;;;;;;6.03;3.58;;;;;;;11.23;70.99;99502.00;4998744;28;20120;-64
2021/11/22 12:26:57;;;;;;;8.82;4.90;;;;;;;11.25;70.97;99494.94;5002030;28;20478;-64
2021/11/22 12:29:41;;;;;;;9.48;4.50;;;;;;;11.28;71.45;99501.63;5017021;28;20048;-64
2021/11/22 12:32:31;;;;;;;12.70;5.90;;;;;;;11.64;69.94;99504.56;5016835;28;20415;-64
2021/11/22 12:35:15;;;;;;;6.72;4.38;;;;;;;11.53;71.10;99503.78;5001870;28;20542;-64
2021/11/22 12:38:35;;;;;;;6.85;3.53;;;;;;;11.52;71.23;99500.41;5001913;28;20144;-65
2021/11/22 12:41:24;;;;;;;11.38;4.57;;;;;;;11.31;72.08;99501.38;4988404;28;20052;-65
2021/11/22 12:44:14;;;;;;;10.77;4.00;;;;;;;11.21;71.58;99498.72;5002269;28;20057;-64
2021/11/22 12:46:58;;;;;;;6.68;3.65;;;;;;;11.15;72.39;99501.81;5001933;28;20414;-64
2021/11/22 12:49:44;;;;;;;8.80;3.80;;;;;;;11.08;70.99;99498.06;4987567;28;20057;-64